Time;durP1;ratioP1;P1;durP2;ratioP2;P2;SDS_P1;SDS_P2;PMS_P1;PMS_P2;Temp;Humidity;BMP_temperature;BMP_pressure;BME280_temperature;BME280_humidity;BME280_pressure;Samples;Min_cycle;Max_cycle;Signal;HPM_P1;HPM_P2
2024/01/28 00:00:35;;;;;;;14.88;5.25;;;2.30;99.90;;;;;;5054896;28;20040;-71
2024/01/28 00:03:01;;;;;;;16.00;5.35;;;2.20;99.90;;;;;;5051767;28;20048;-71
2024/01/28 00:05:27;;;;;;;14.07;6.87;;;2.20;99.90;;;;;;5055058;28;20048;-70
2024/01/28 00:07:52;;;;;;;18.40;5.43;;;2.20;99.90;;;;;;5054263;28;20179;-69
2024/01/28 00:10:18;;;;;;;19.73;5.73;;;2.20;99.90;;;;;;5034899;28;20071;-70
2024/01/28 00:12:44;;;;;;;15.33;5.73;;;2.20;99.90;;;;;;5051169;28;20481;-69
2024/01/28 00:15:10;;;;;;;16.67;4.90;;;2.20;99.90;;;;;;5032957;28;20053;-69
2024/01/28 00:17:37;;;;;;;12.10;5.45;;;2.20;99.90;;;;;;5050994;28;20041;-69
2024/01/28 00:20:05;;;;;;;14.90;5.55;;;2.10;99.90;;;;;;5048836;28;20145;-70
2024/01/28 00:22:31;;;;;;;20.50;6.70;;;2.10;99.90;;;;;;5052610;28;20520;-69
2024/01/28 00:24:57;;;;;;;16.20;5.43;;;2.10;99.90;;;;;;5029161;28;20041;-70
2024/01/28 00:27:22;;;;;;;14.23;5.40;;;2.20;99.90;;;;;;5053150;28;20052;-69
2024/01/28 00:29:48;;;;;;;18.43;6.60;;;2.10;99.90;;;;;;5060704;28;20098;-69
2024/01/28 00:32:14;;;;;;;17.37;6.90;;;2.10;99.90;;;;;;5054575;28;20048;-69
2024/01/28 00:34:40;;;;;;;14.60;5.70;;;2.10;99.90;;;;;;5048221;28;20048;-69
2024/01/28 00:37:06;;;;;;;15.48;5.00;;;2.10;99.90;;;;;;5056818;28;20515;-69
2024/01/28 00:39:32;;;;;;;19.67;4.90;;;2.10;99.90;;;;;;5052094;28;20044;-69
2024/01/28 00:41:58;;;;;;;16.52;5.60;;;2.10;99.90;;;;;;5037713;28;20045;-70
2024/01/28 00:44:24;;;;;;;14.40;6.05;;;2.10;99.90;;;;;;5049434;28;20476;-70
2024/01/28 00:46:50;;;;;;;15.53;5.57;;;2.10;99.90;;;;;;5047478;28;20048;-70
2024/01/28 00:49:15;;;;;;;13.47;5.30;;;2.10;99.90;;;;;;5051079;28;20055;-70
2024/01/28 00:51:41;;;;;;;14.30;6.20;;;2.10;99.90;;;;;;5048347;28;20052;-70
2024/01/28 00:54:07;;;;;;;20.35;6.05;;;2.10;99.90;;;;;;5049789;28;20043;-70
2024/01/28 00:56:33;;;;;;;16.55;6.05;;;2.10;99.90;;;;;;5052731;28;20230;-70
2024/01/28 00:58:59;;;;;;;17.77;5.70;;;2.00;99.90;;;;;;5029526;28;20045;-70
2024/01/28 01:01:25;;;;;;;10.40;5.03;;;2.00;99.90;;;;;;5037405;28;20194;-70
2024/01/28 01:03:50;;;;;;;17.63;6.00;;;2.10;99.90;;;;;;5049314;28;20050;-71
2024/01/28 01:06:16;;;;;;;14.47;5.03;;;2.00;99.90;;;;;;5053743;28;20128;-70
2024/01/28 01:08:41;;;;;;;11.73;5.47;;;2.10;99.90;;;;;;5051914;28;20511;-71
2024/01/28 01:11:07;;;;;;;13.93;4.53;;;2.10;99.90;;;;;;5057652;28;20496;-70
2024/01/28 01:13:33;;;;;;;11.27;5.03;;;2.10;99.90;;;;;;5052035;28;20040;-70
2024/01/28 01:15:59;;;;;;;14.13;5.20;;;2.10;99.90;;;;;;5032364;28;20508;-70
2024/01/28 01:18:25;;;;;;;10.32;4.45;;;2.10;99.90;;;;;;5053908;28;20497;-70
2024/01/28 01:20:52;;;;;;;9.57;4.70;;;2.10;99.90;;;;;;5052274;28;20341;-70
2024/01/28 01:23:17;;;;;;;17.27;5.40;;;2.10;99.90;;;;;;5053575;28;20044;-71
2024/01/28 01:25:43;;;;;;;21.40;5.40;;;2.10;99.90;;;;;;5051848;28;20101;-70
2024/01/28 01:28:09;;;;;;;19.73;5.33;;;2.20;99.90;;;;;;5055814;28;20497;-70
2024/01/28 01:30:34;;;;;;;15.40;5.87;;;2.10;99.90;;;;;;5054822;28;20044;-70
2024/01/28 01:33:00;;;;;;;13.50;5.30;;;2.20;99.90;;;;;;5051669;28;20044;-70
2024/01/28 01:35:26;;;;;;;15.83;5.37;;;2.20;99.90;;;;;;5055319;28;20488;-70
2024/01/28 01:37:54;;;;;;;14.30;5.28;;;2.20;99.90;;;;;;5048183;28;20430;-69
2024/01/28 01:40:20;;;;;;;20.17;5.68;;;2.20;99.90;;;;;;5049064;28;20211;-70
2024/01/28 01:42:46;;;;;;;10.00;4.97;;;2.20;99.90;;;;;;5059389;28;20116;-69
2024/01/28 01:45:12;;;;;;;10.02;5.05;;;2.20;99.90;;;;;;5030101;28;20052;-69
2024/01/28 01:47:39;;;;;;;11.60;5.03;;;2.20;99.90;;;;;;5054209;28;20040;-69
2024/01/28 01:50:08;;;;;;;16.38;4.70;;;2.20;99.90;;;;;;5054928;28;20343;-69
2024/01/28 01:52:34;;;;;;;14.65;5.88;;;2.20;99.90;;;;;;5050929;28;20150;-69
2024/01/28 01:55:01;;;;;;;16.37;5.77;;;2.20;99.90;;;;;;5053503;28;20127;-69
2024/01/28 01:57:27;;;;;;;16.02;5.68;;;2.20;99.90;;;;;;5058496;28;20060;-70
2024/01/28 01:59:53;;;;;;;11.32;5.32;;;2.20;99.90;;;;;;5046635;28;20091;-69
2024/01/28 02:02:20;;;;;;;12.98;5.25;;;2.30;99.90;;;;;;5053254;28;20504;-69
2024/01/28 02:04:46;;;;;;;10.45;5.00;;;2.30;99.90;;;;;;5046391;28;20064;-70
2024/01/28 02:07:12;;;;;;;13.87;5.03;;;2.20;99.90;;;;;;5044469;28;20576;-69
2024/01/28 02:09:37;;;;;;;12.85;4.80;;;2.20;99.90;;;;;;5057890;28;20045;-69
2024/01/28 02:12:03;;;;;;;14.93;6.00;;;2.30;99.90;;;;;;5051665;28;20060;-69
2024/01/28 02:14:31;;;;;;;11.32;5.18;;;2.30;99.90;;;;;;5059107;28;20044;-69
2024/01/28 02:16:58;;;;;;;15.30;5.50;;;2.30;99.90;;;;;;5054420;28;20119;-69
2024/01/28 02:19:24;;;;;;;12.35;5.40;;;2.30;99.90;;;;;;5050739;28;20049;-69
2024/01/28 02:21:49;;;;;;;16.90;5.83;;;2.30;99.90;;;;;;5036577;28;20456;-70
2024/01/28 02:24:15;;;;;;;15.90;5.53;;;2.30;99.90;;;;;;5052515;28;20852;-69
2024/01/28 02:26:41;;;;;;;14.17;6.60;;;2.30;99.90;;;;;;5053667;28;20255;-70
2024/01/28 02:29:06;;;;;;;10.83;5.47;;;2.30;99.90;;;;;;5038657;28;20048;-69
2024/01/28 02:31:32;;;;;;;14.53;5.07;;;2.30;99.90;;;;;;5034515;28;20047;-70
2024/01/28 02:33:58;;;;;;;14.87;6.33;;;2.30;99.90;;;;;;5048861;28;20040;-69
2024/01/28 02:36:25;;;;;;;13.95;5.63;;;2.30;99.90;;;;;;5034348;28;20118;-69
2024/01/28 02:38:51;;;;;;;10.75;5.50;;;2.30;99.90;;;;;;5052246;28;20033;-69
2024/01/28 02:41:16;;;;;;;12.87;6.10;;;2.30;99.90;;;;;;5060988;28;20040;-69
2024/01/28 02:43:42;;;;;;;13.07;5.53;;;2.30;99.90;;;;;;5057806;28;20491;-69
2024/01/28 02:46:07;;;;;;;11.60;5.30;;;2.30;99.90;;;;;;5043784;28;20147;-69
2024/01/28 02:48:33;;;;;;;11.33;5.70;;;2.30;99.90;;;;;;5057727;28;20044;-69
2024/01/28 02:50:59;;;;;;;12.37;4.93;;;2.30;99.90;;;;;;5055062;28;20045;-71
2024/01/28 02:53:24;;;;;;;15.50;5.40;;;2.40;99.90;;;;;;5055843;28;20049;-70
2024/01/28 02:55:50;;;;;;;13.47;6.10;;;2.40;99.90;;;;;;5056708;28;20408;-69
2024/01/28 02:58:16;;;;;;;14.13;5.60;;;2.40;99.90;;;;;;5052547;28;20168;-69
2024/01/28 03:00:42;;;;;;;15.50;5.10;;;2.40;99.90;;;;;;5063488;28;20047;-70
2024/01/28 03:03:08;;;;;;;17.27;5.13;;;2.40;99.90;;;;;;5039606;28;20040;-69
2024/01/28 03:05:35;;;;;;;13.00;6.03;;;2.50;99.90;;;;;;5052653;28;20312;-69
2024/01/28 03:08:01;;;;;;;16.63;5.43;;;2.50;99.90;;;;;;5047554;28;20527;-69
2024/01/28 03:10:26;;;;;;;14.40;5.55;;;2.50;99.90;;;;;;5041043;28;20037;-69
2024/01/28 03:12:52;;;;;;;14.70;4.82;;;2.40;99.90;;;;;;5061721;28;20313;-69
2024/01/28 03:15:18;;;;;;;13.60;6.23;;;2.50;99.90;;;;;;5038477;28;20040;-69
2024/01/28 03:17:44;;;;;;;17.13;5.35;;;2.50;99.90;;;;;;5052528;28;20356;-69
2024/01/28 03:20:11;;;;;;;12.73;5.20;;;2.50;99.90;;;;;;5064459;28;20050;-72
2024/01/28 03:22:39;;;;;;;17.50;5.68;;;2.40;99.90;;;;;;5064139;28;20165;-71
2024/01/28 03:25:06;;;;;;;16.08;5.55;;;2.50;99.90;;;;;;5059026;28;20041;-71
2024/01/28 03:27:35;;;;;;;14.15;5.35;;;2.40;99.90;;;;;;5049447;28;20125;-71
2024/01/28 03:30:04;;;;;;;15.52;5.45;;;2.40;99.90;;;;;;5057808;28;20048;-71
2024/01/28 03:32:31;;;;;;;16.75;5.70;;;2.50;99.90;;;;;;5068291;28;20520;-70
2024/01/28 03:34:57;;;;;;;11.13;5.57;;;2.40;99.90;;;;;;5061950;28;20214;-72
2024/01/28 03:37:24;;;;;;;17.50;6.07;;;2.50;99.90;;;;;;5063403;28;20127;-71
2024/01/28 03:39:50;;;;;;;21.20;5.95;;;2.50;99.90;;;;;;5064486;28;20047;-71
2024/01/28 03:42:17;;;;;;;20.35;5.95;;;2.40;99.90;;;;;;5047969;28;20044;-71
2024/01/28 03:44:43;;;;;;;23.25;6.47;;;2.40;99.90;;;;;;5063047;28;20418;-71
2024/01/28 03:47:09;;;;;;;17.42;6.47;;;2.40;99.90;;;;;;5057193;28;20036;-71
2024/01/28 03:49:36;;;;;;;15.35;5.72;;;2.40;99.90;;;;;;5065476;28;20036;-71
2024/01/28 03:52:02;;;;;;;20.20;5.90;;;2.40;99.90;;;;;;5061906;28;20076;-71
2024/01/28 03:54:28;;;;;;;10.73;5.40;;;2.40;99.90;;;;;;5058575;28;20076;-71
2024/01/28 03:56:54;;;;;;;15.25;5.22;;;2.30;99.90;;;;;;5063466;28;20393;-72
2024/01/28 03:59:21;;;;;;;20.10;7.18;;;2.30;99.90;;;;;;5047672;28;20041;-72
2024/01/28 04:01:47;;;;;;;11.75;5.80;;;2.30;99.90;;;;;;5061138;28;20150;-71
2024/01/28 04:04:13;;;;;;;12.52;7.00;;;2.30;99.90;;;;;;5053900;28;20052;-71
2024/01/28 04:06:43;;;;;;;10.43;5.72;;;2.20;99.90;;;;;;5061055;28;20198;-71
2024/01/28 04:09:10;;;;;;;15.85;7.35;;;2.30;99.90;;;;;;5056479;28;20138;-72
2024/01/28 04:11:37;;;;;;;16.25;6.97;;;2.20;99.90;;;;;;5065024;28;20044;-72
2024/01/28 04:14:12;;;;;;;11.77;6.00;;;2.20;99.90;;;;;;5060769;28;20326;-72
2024/01/28 04:16:39;;;;;;;10.93;6.63;;;2.20;99.90;;;;;;5058964;28;20321;-71
2024/01/28 04:19:05;;;;;;;;;;;2.20;99.90;;;;;;5061072;28;20047;-72
2024/01/28 04:21:33;;;;;;;16.10;5.78;;;2.10;99.90;;;;;;5057005;28;19976;-72
2024/01/28 04:24:04;;;;;;;18.10;6.68;;;2.10;99.90;;;;;;5060039;28;20052;-72
2024/01/28 04:26:33;;;;;;;15.05;6.75;;;2.10;99.90;;;;;;5062031;28;20476;-72
2024/01/28 04:29:00;;;;;;;15.85;5.47;;;2.00;99.90;;;;;;5044604;28;20146;-73
2024/01/28 04:31:26;;;;;;;17.25;6.22;;;2.00;99.90;;;;;;5053194;28;20044;-73
2024/01/28 04:34:01;;;;;;;15.70;6.75;;;1.90;99.90;;;;;;5059513;28;20033;-73
2024/01/28 04:36:28;;;;;;;12.55;6.50;;;1.90;99.90;;;;;;5060047;28;20029;-72
2024/01/28 04:39:26;;;;;;;16.27;7.03;;;1.90;99.90;;;;;;5044727;28;20513;-74
2024/01/28 04:41:52;;;;;;;;;;;1.90;99.90;;;;;;5047792;28;20044;-73
2024/01/28 04:44:20;;;;;;;18.10;7.85;;;1.90;99.90;;;;;;5058498;28;19917;-72
2024/01/28 04:46:49;;;;;;;20.95;7.15;;;1.90;99.90;;;;;;5045543;28;20044;-74
2024/01/28 04:49:23;;;;;;;12.15;6.68;;;1.80;99.90;;;;;;5059015;28;20070;-72
2024/01/28 04:51:50;;;;;;;16.45;7.28;;;1.90;99.90;;;;;;5057246;28;20399;-72
2024/01/28 04:54:18;;;;;;;21.45;6.38;;;1.80;99.90;;;;;;5044936;28;20066;-72
2024/01/28 04:56:45;;;;;;;14.93;6.97;;;1.80;99.90;;;;;;5044347;28;20094;-72
2024/01/28 04:59:11;;;;;;;19.52;6.97;;;1.80;99.90;;;;;;5041841;28;20044;-71
2024/01/28 05:01:37;;;;;;;16.13;6.38;;;1.80;99.90;;;;;;5053462;28;20194;-71
2024/01/28 05:04:04;;;;;;;16.75;6.95;;;1.80;99.90;;;;;;5053821;28;20060;-72
2024/01/28 05:06:39;;;;;;;11.75;6.22;;;1.70;99.90;;;;;;5058321;28;20052;-73
2024/01/28 05:09:06;;;;;;;20.40;6.82;;;1.70;99.90;;;;;;5052863;28;20059;-72
2024/01/28 05:11:32;;;;;;;12.18;6.90;;;1.70;99.90;;;;;;5076580;28;20048;-72
2024/01/28 05:13:59;;;;;;;17.67;7.30;;;1.70;99.90;;;;;;5036702;28;20227;-76
2024/01/28 05:16:25;;;;;;;17.27;6.82;;;1.70;99.90;;;;;;5052863;28;20051;-72
2024/01/28 05:18:53;;;;;;;15.32;7.82;;;1.60;99.90;;;;;;5056976;28;20067;-71
2024/01/28 05:21:19;;;;;;;17.85;6.50;;;1.60;99.90;;;;;;5031838;28;20094;-71
2024/01/28 05:23:48;;;;;;;14.10;6.03;;;1.60;99.90;;;;;;5044676;28;20032;-71
2024/01/28 05:26:14;;;;;;;14.60;6.68;;;1.60;99.90;;;;;;5035370;28;20049;-71
2024/01/28 05:28:40;;;;;;;14.25;6.90;;;1.50;99.90;;;;;;5055226;28;20097;-72
2024/01/28 05:31:09;;;;;;;17.48;7.20;;;1.50;99.90;;;;;;5060931;28;20459;-72
2024/01/28 05:33:37;;;;;;;16.05;7.20;;;1.50;99.90;;;;;;5055656;28;20044;-72
2024/01/28 05:36:16;;;;;;;15.93;7.82;;;1.50;99.90;;;;;;5058658;28;20040;-71
2024/01/28 05:38:42;;;;;;;17.27;6.47;;;1.50;99.90;;;;;;5040120;28;20100;-71
2024/01/28 05:41:08;;;;;;;19.42;7.65;;;1.50;99.90;;;;;;5034820;28;20037;-72
2024/01/28 05:43:34;;;;;;;10.07;6.10;;;1.50;99.90;;;;;;5056234;28;20572;-71
2024/01/28 05:46:03;;;;;;;12.23;6.55;;;1.50;99.90;;;;;;5058685;28;20056;-72
2024/01/28 05:48:29;;;;;;;19.70;7.13;;;1.50;99.90;;;;;;5056785;28;20048;-71
2024/01/28 05:50:55;;;;;;;17.65;6.00;;;1.50;99.90;;;;;;5055096;28;20052;-71
2024/01/28 05:53:26;;;;;;;15.55;6.57;;;1.50;99.90;;;;;;5035844;28;20068;-71
2024/01/28 05:55:52;;;;;;;19.52;5.93;;;1.40;99.90;;;;;;5059638;28;20113;-71
2024/01/28 05:58:19;;;;;;;14.93;6.38;;;1.40;99.90;;;;;;5059826;28;20041;-72
2024/01/28 06:00:46;;;;;;;21.58;6.70;;;1.50;99.90;;;;;;5038597;28;20048;-72
2024/01/28 06:03:12;;;;;;;15.57;6.82;;;1.40;99.90;;;;;;5059246;28;20036;-71
2024/01/28 06:05:37;;;;;;;14.98;7.03;;;1.40;99.90;;;;;;5057819;28;20354;-72
2024/01/28 06:08:03;;;;;;;14.30;6.20;;;1.40;99.90;;;;;;5049652;28;20048;-71
2024/01/28 06:10:29;;;;;;;15.68;6.53;;;1.30;99.90;;;;;;5053924;28;20037;-71
2024/01/28 06:12:55;;;;;;;15.90;7.80;;;1.30;99.90;;;;;;5051768;28;20372;-71
2024/01/28 06:15:20;;;;;;;11.87;6.73;;;1.30;99.90;;;;;;5059937;28;20485;-71
2024/01/28 06:17:46;;;;;;;22.63;8.37;;;1.30;99.90;;;;;;5063080;28;20033;-71
2024/01/28 06:20:12;;;;;;;21.33;7.60;;;1.20;99.90;;;;;;5062221;28;20037;-71
2024/01/28 06:22:38;;;;;;;13.20;6.60;;;1.20;99.90;;;;;;5061006;28;20047;-71
2024/01/28 06:25:03;;;;;;;18.10;6.40;;;1.20;99.90;;;;;;5052817;28;20048;-71
2024/01/28 06:27:29;;;;;;;17.95;6.50;;;1.20;99.90;;;;;;5065528;28;20416;-71
2024/01/28 06:29:55;;;;;;;12.23;6.13;;;1.10;99.90;;;;;;5056512;28;20049;-71
2024/01/28 06:32:22;;;;;;;14.70;7.57;;;1.10;99.90;;;;;;5060749;28;20293;-71
2024/01/28 06:34:50;;;;;;;;;;;1.20;99.90;;;;;;5043616;28;20041;-71
2024/01/28 06:37:16;;;;;;;17.42;7.75;;;1.10;99.90;;;;;;5064200;28;21711;-71
2024/01/28 06:39:42;;;;;;;21.03;6.93;;;1.10;99.90;;;;;;5057670;28;20166;-71
2024/01/28 06:42:09;;;;;;;14.77;6.77;;;1.00;99.90;;;;;;5058256;28;20040;-71
2024/01/28 06:44:36;;;;;;;11.82;6.53;;;1.10;99.90;;;;;;5054733;28;20562;-71
2024/01/28 06:47:03;;;;;;;15.32;6.90;;;1.00;99.90;;;;;;5056862;28;20048;-71
2024/01/28 06:49:29;;;;;;;14.65;6.03;;;1.00;99.90;;;;;;5060457;28;20512;-71
2024/01/28 06:51:55;;;;;;;14.38;6.65;;;1.10;99.90;;;;;;5041113;28;20083;-71
2024/01/28 06:54:21;;;;;;;14.57;6.20;;;1.00;99.90;;;;;;5060007;28;20037;-71
2024/01/28 06:56:48;;;;;;;17.42;7.05;;;1.00;99.90;;;;;;5056783;28;20036;-71
2024/01/28 06:59:14;;;;;;;16.00;7.22;;;1.00;99.90;;;;;;5058868;28;20440;-71
2024/01/28 07:01:40;;;;;;;13.57;6.70;;;1.00;99.90;;;;;;5059207;28;20029;-71
2024/01/28 07:04:06;;;;;;;18.25;7.70;;;1.00;99.90;;;;;;5040388;28;20455;-71
2024/01/28 07:06:32;;;;;;;12.30;6.57;;;0.90;99.90;;;;;;5053271;28;20093;-71
2024/01/28 07:08:57;;;;;;;18.47;7.13;;;0.90;99.90;;;;;;5055959;28;20431;-71
2024/01/28 07:11:24;;;;;;;15.50;6.75;;;0.90;99.90;;;;;;5058372;28;20044;-71
2024/01/28 07:13:50;;;;;;;16.07;6.83;;;0.90;99.90;;;;;;5053017;28;20052;-71
2024/01/28 07:16:15;;;;;;;18.80;6.93;;;0.90;99.90;;;;;;5063194;28;20036;-70
2024/01/28 07:18:41;;;;;;;18.60;6.97;;;0.90;99.90;;;;;;5065027;28;20043;-70
2024/01/28 07:21:07;;;;;;;14.80;7.27;;;0.90;99.90;;;;;;5056884;28;20029;-70
2024/01/28 07:23:32;;;;;;;15.00;6.87;;;0.90;99.90;;;;;;5051928;28;20664;-70
2024/01/28 07:25:58;;;;;;;20.50;7.73;;;0.90;99.90;;;;;;5060659;28;20040;-70
2024/01/28 07:28:24;;;;;;;13.53;6.70;;;0.90;99.90;;;;;;5033851;28;20400;-69
2024/01/28 07:30:49;;;;;;;19.17;7.10;;;0.90;99.90;;;;;;5056668;28;20044;-70
2024/01/28 07:33:17;;;;;;;15.17;6.10;;;0.90;99.90;;;;;;5029981;28;20143;-70
2024/01/28 07:35:42;;;;;;;18.13;6.75;;;0.90;99.90;;;;;;5061099;28;20036;-70
2024/01/28 07:38:12;;;;;;;9.97;6.00;;;0.90;99.90;;;;;;5061957;28;20051;-70
2024/01/28 07:40:37;;;;;;;14.18;6.43;;;0.90;99.90;;;;;;5046318;28;20511;-70
2024/01/28 07:43:03;;;;;;;14.63;6.83;;;0.90;99.90;;;;;;5059290;28;20148;-70
2024/01/28 07:45:29;;;;;;;16.25;6.47;;;0.90;99.90;;;;;;5056573;28;20051;-70
2024/01/28 07:47:55;;;;;;;12.23;6.17;;;0.90;99.90;;;;;;5062918;28;20040;-70
2024/01/28 07:50:21;;;;;;;16.15;5.78;;;0.90;99.90;;;;;;5058428;28;20036;-70
2024/01/28 07:52:47;;;;;;;12.67;6.67;;;0.80;99.90;;;;;;5052730;28;20041;-70
2024/01/28 07:55:12;;;;;;;13.65;6.55;;;0.80;99.90;;;;;;5050279;28;20430;-70
2024/01/28 07:57:38;;;;;;;20.43;6.57;;;0.90;99.90;;;;;;5066609;28;20056;-70
2024/01/28 08:00:05;;;;;;;16.90;6.20;;;0.80;99.90;;;;;;5060872;28;20482;-70
2024/01/28 08:02:31;;;;;;;14.27;5.78;;;0.90;99.90;;;;;;5059113;28;20115;-70
2024/01/28 08:04:56;;;;;;;13.25;6.20;;;0.90;99.90;;;;;;5049185;28;20140;-70
2024/01/28 08:07:22;;;;;;;14.97;6.07;;;0.90;99.90;;;;;;5059081;28;20467;-70
2024/01/28 08:09:48;;;;;;;20.00;7.38;;;0.90;99.90;;;;;;5057519;28;20389;-70
2024/01/28 08:12:14;;;;;;;12.77;5.47;;;0.90;99.90;;;;;;5059876;28;20048;-71
2024/01/28 08:14:39;;;;;;;15.67;6.00;;;1.00;99.90;;;;;;5056458;28;20632;-69
2024/01/28 08:17:05;;;;;;;12.97;6.07;;;1.00;99.90;;;;;;5057421;28;20040;-71
2024/01/28 08:19:31;;;;;;;22.67;5.60;;;1.00;99.90;;;;;;5060893;28;20070;-69
2024/01/28 08:21:58;;;;;;;13.48;5.72;;;1.10;99.90;;;;;;5057961;28;20079;-71
2024/01/28 08:24:24;;;;;;;12.80;5.65;;;1.10;99.90;;;;;;5066596;28;20052;-71
2024/01/28 08:26:50;;;;;;;11.75;6.43;;;1.20;99.90;;;;;;5043314;28;20154;-71
2024/01/28 08:29:16;;;;;;;13.45;5.57;;;1.20;99.90;;;;;;5051859;28;20136;-71
2024/01/28 08:31:42;;;;;;;11.60;5.67;;;1.30;99.90;;;;;;5055588;28;20355;-71
2024/01/28 08:34:07;;;;;;;14.63;5.80;;;1.30;99.90;;;;;;5052780;28;20045;-71
2024/01/28 08:36:33;;;;;;;12.73;5.37;;;1.40;99.90;;;;;;5051648;28;20054;-68
2024/01/28 08:38:58;;;;;;;14.63;5.70;;;1.40;99.90;;;;;;5052140;28;20036;-68
2024/01/28 08:41:24;;;;;;;13.03;5.30;;;1.60;99.90;;;;;;5053520;28;20396;-68
2024/01/28 08:43:50;;;;;;;14.60;4.63;;;1.60;99.90;;;;;;5060463;28;20495;-68
2024/01/28 08:46:16;;;;;;;14.97;4.77;;;1.70;99.90;;;;;;5054423;28;20106;-71
2024/01/28 08:48:42;;;;;;;10.90;5.90;;;1.70;99.90;;;;;;5056239;28;20455;-71
2024/01/28 08:51:09;;;;;;;10.68;4.70;;;1.80;99.90;;;;;;5057396;28;20076;-69
2024/01/28 08:53:35;;;;;;;;;;;1.90;99.90;;;;;;5050420;28;20048;-68
2024/01/28 08:56:00;;;;;;;11.63;5.22;;;2.00;99.90;;;;;;5052174;28;19995;-71
2024/01/28 08:58:26;;;;;;;11.60;4.70;;;2.10;99.90;;;;;;5056189;28;20044;-68
2024/01/28 09:00:54;;;;;;;11.87;4.77;;;2.20;99.90;;;;;;5049410;28;20033;-68
2024/01/28 09:03:20;;;;;;;9.88;4.43;;;2.30;99.90;;;;;;5050619;28;20052;-68
2024/01/28 09:05:46;;;;;;;9.67;5.03;;;2.40;99.90;;;;;;5047035;28;20048;-68
2024/01/28 09:08:12;;;;;;;10.05;5.68;;;2.50;99.90;;;;;;5034300;28;20403;-68
2024/01/28 09:10:37;;;;;;;10.43;4.40;;;2.70;99.90;;;;;;5048381;28;20045;-68
2024/01/28 09:13:04;;;;;;;8.90;3.67;;;2.70;99.90;;;;;;5056993;28;20108;-68
2024/01/28 09:15:32;;;;;;;13.70;5.32;;;2.90;99.90;;;;;;5060751;28;20075;-68
2024/01/28 09:17:58;;;;;;;8.77;3.73;;;3.00;99.90;;;;;;5061991;28;20540;-69
2024/01/28 09:20:24;;;;;;;9.90;4.63;;;3.20;99.90;;;;;;5032966;28;20041;-68
2024/01/28 09:22:49;;;;;;;11.93;4.87;;;3.30;99.90;;;;;;5060718;28;20040;-68
2024/01/28 09:25:15;;;;;;;11.13;4.40;;;3.40;99.90;;;;;;5049046;28;20132;-69
2024/01/28 09:27:42;;;;;;;7.90;4.13;;;3.50;99.90;;;;;;5059959;28;20090;-68
2024/01/28 09:30:10;;;;;;;6.80;3.78;;;3.60;99.90;;;;;;5034183;28;20049;-69
2024/01/28 09:32:36;;;;;;;10.27;4.40;;;3.70;99.90;;;;;;5061122;28;20044;-68
2024/01/28 09:35:01;;;;;;;11.17;3.93;;;3.80;99.90;;;;;;5054663;28;20581;-68
2024/01/28 09:37:27;;;;;;;6.93;3.60;;;3.90;99.90;;;;;;5041222;28;20485;-68
2024/01/28 09:39:53;;;;;;;10.80;4.50;;;4.00;99.90;;;;;;5056699;28;20036;-68
2024/01/28 09:43:12;;;;;;;7.90;3.23;;;4.10;99.90;;;;;;5059019;28;20062;-68
2024/01/28 09:45:40;;;;;;;12.93;4.18;;;4.20;99.90;;;;;;5008546;28;20056;-69
2024/01/28 09:48:07;;;;;;;9.82;3.60;;;4.30;99.90;;;;;;5043195;28;20036;-68
2024/01/28 09:50:35;;;;;;;9.48;4.20;;;4.30;99.90;;;;;;5049036;28;20054;-69
2024/01/28 09:53:01;;;;;;;6.53;2.80;;;4.30;99.90;;;;;;5032340;28;20080;-69
2024/01/28 09:55:27;;;;;;;12.67;3.60;;;4.30;99.90;;;;;;5058932;28;20489;-68
2024/01/28 09:57:52;;;;;;;9.00;3.47;;;4.30;99.90;;;;;;5052265;28;20103;-68
2024/01/28 10:00:22;;;;;;;11.33;3.70;;;4.30;99.90;;;;;;5053859;28;20057;-68
2024/01/28 10:02:48;;;;;;;10.32;3.88;;;4.50;99.90;;;;;;5054179;28;20036;-68
2024/01/28 10:05:14;;;;;;;7.40;3.40;;;4.50;99.90;;;;;;5049462;28;20106;-68
2024/01/28 10:07:48;;;;;;;8.82;4.18;;;4.50;99.90;;;;;;5057999;28;20131;-69
2024/01/28 10:10:17;;;;;;;10.68;3.83;;;4.60;99.90;;;;;;5056740;28;20094;-68
2024/01/28 10:12:47;;;;;;;11.88;3.35;;;4.70;99.90;;;;;;5054376;28;20041;-70
2024/01/28 10:15:20;;;;;;;11.60;3.75;;;4.70;99.90;;;;;;5059460;28;20248;-71
2024/01/28 10:17:48;;;;;;;11.60;3.22;;;4.80;99.90;;;;;;5056347;28;20173;-72
2024/01/28 10:20:19;;;;;;;10.05;3.38;;;4.90;99.90;;;;;;5059103;28;20139;-71
2024/01/28 10:22:45;;;;;;;9.57;3.25;;;4.90;99.90;;;;;;5048775;28;20033;-70
2024/01/28 10:25:12;;;;;;;11.20;3.70;;;5.00;99.90;;;;;;5038333;28;20348;-70
2024/01/28 10:27:39;;;;;;;8.77;3.60;;;5.10;99.90;;;;;;5052810;28;20433;-69
2024/01/28 10:30:06;;;;;;;12.13;4.38;;;5.20;99.90;;;;;;5047557;28;20056;-69
2024/01/28 10:32:35;;;;;;;7.65;2.90;;;5.20;99.90;;;;;;5051968;28;20063;-70
2024/01/28 10:35:01;;;;;;;10.70;3.80;;;5.40;99.90;;;;;;5055339;28;20361;-69
2024/01/28 10:37:29;;;;;;;9.15;3.13;;;5.50;99.90;;;;;;5051692;28;20481;-70
2024/01/28 10:40:05;;;;;;;8.80;3.42;;;5.60;99.90;;;;;;5058132;28;20071;-70
2024/01/28 10:42:39;;;;;;;11.45;3.60;;;5.70;99.90;;;;;;5056677;28;20107;-70
2024/01/28 10:45:13;;;;;;;16.13;4.28;;;5.80;99.90;;;;;;5046704;28;20061;-70
2024/01/28 10:47:48;;;;;;;10.32;3.60;;;5.80;99.90;;;;;;5047899;28;20040;-70
2024/01/28 10:50:14;;;;;;;10.90;3.75;;;5.90;99.90;;;;;;5045307;28;20099;-70
2024/01/28 10:52:43;;;;;;;9.65;4.03;;;6.00;99.90;;;;;;5052009;28;20078;-70
2024/01/28 10:55:09;;;;;;;15.27;3.70;;;6.10;99.90;;;;;;5048896;28;20049;-70
2024/01/28 10:57:36;;;;;;;12.52;3.50;;;6.20;99.90;;;;;;5054257;28;20052;-69
2024/01/28 11:00:06;;;;;;;11.25;3.78;;;6.30;99.90;;;;;;5054556;28;20044;-69
2024/01/28 11:02:34;;;;;;;10.40;4.13;;;6.40;99.90;;;;;;5053888;28;20118;-69
2024/01/28 11:05:02;;;;;;;9.13;3.47;;;6.50;99.90;;;;;;5057452;28;20384;-70
2024/01/28 11:07:28;;;;;;;9.90;3.70;;;6.60;99.90;;;;;;5058712;28;20076;-70
2024/01/28 11:09:54;;;;;;;10.70;3.28;;;6.70;99.90;;;;;;5057451;28;20052;-70
2024/01/28 11:12:20;;;;;;;6.60;3.20;;;6.70;99.90;;;;;;5054052;28;20393;-70
2024/01/28 11:14:46;;;;;;;8.48;3.15;;;6.80;99.90;;;;;;5058060;28;20138;-70
2024/01/28 11:17:13;;;;;;;10.07;4.15;;;6.80;99.90;;;;;;5058249;28;20052;-70
2024/01/28 11:19:39;;;;;;;;;;;6.80;99.90;;;;;;5058103;28;20119;-70
2024/01/28 11:22:13;;;;;;;11.05;3.45;;;6.80;99.90;;;;;;5057822;28;20014;-70
2024/01/28 11:24:51;;;;;;;6.35;2.88;;;6.90;99.90;;;;;;5057429;28;20150;-70
2024/01/28 11:27:21;;;;;;;8.70;3.33;;;6.90;99.90;;;;;;5058066;28;20115;-70
2024/01/28 11:29:55;;;;;;;12.50;4.35;;;7.00;99.90;;;;;;5057607;28;20036;-70
2024/01/28 11:32:34;;;;;;;7.38;2.95;;;7.00;99.90;;;;;;5056760;28;20171;-70
2024/01/28 11:34:59;;;;;;;6.68;2.80;;;7.10;99.90;;;;;;5056968;28;20742;-70
2024/01/28 11:37:28;;;;;;;7.77;3.27;;;7.20;99.90;;;;;;5054932;28;20318;-70
2024/01/28 11:40:10;;;;;;;8.20;3.10;;;7.30;99.90;;;;;;5058149;28;20139;-70
2024/01/28 11:42:36;;;;;;;6.85;2.65;;;7.30;99.90;;;;;;5056197;28;20044;-70
2024/01/28 11:45:03;;;;;;;5.23;2.60;;;7.50;99.90;;;;;;5060689;28;20041;-70
2024/01/28 11:47:29;;;;;;;10.45;3.13;;;7.50;99.90;;;;;;5055537;28;20172;-70
2024/01/28 11:49:56;;;;;;;8.35;2.97;;;7.60;99.90;;;;;;5053168;28;20048;-69
2024/01/28 11:52:26;;;;;;;;;;;7.60;99.90;;;;;;5053666;28;20079;-71
2024/01/28 11:54:52;;;;;;;5.88;2.53;;;7.70;99.90;;;;;;5047453;28;19928;-69
2024/01/28 11:57:18;;;;;;;6.07;2.92;;;7.80;99.90;;;;;;5055288;28;20131;-69
2024/01/28 11:59:48;;;;;;;6.30;3.00;;;7.80;99.90;;;;;;5052441;28;20124;-69
2024/01/28 12:02:14;;;;;;;4.20;2.70;;;7.90;99.90;;;;;;5048338;28;20095;-69
2024/01/28 12:04:40;;;;;;;7.03;3.22;;;8.00;99.90;;;;;;5038292;28;20101;-69
2024/01/28 12:07:06;;;;;;;6.90;2.80;;;8.10;99.90;;;;;;5051864;28;20516;-69
2024/01/28 12:09:32;;;;;;;6.90;2.90;;;8.20;99.90;;;;;;5055421;28;20036;-68
2024/01/28 12:11:58;;;;;;;6.50;2.77;;;8.30;99.90;;;;;;5054152;28;20036;-69
2024/01/28 12:14:23;;;;;;;7.63;2.72;;;8.40;99.90;;;;;;5056697;28;20137;-69
2024/01/28 12:16:49;;;;;;;5.27;3.10;;;8.40;99.90;;;;;;5054335;28;20497;-70
2024/01/28 12:19:17;;;;;;;4.77;2.43;;;8.50;99.90;;;;;;5036054;28;20097;-70
2024/01/28 12:21:42;;;;;;;5.93;2.22;;;8.50;99.90;;;;;;5056529;28;20038;-70
2024/01/28 12:24:12;;;;;;;5.73;2.73;;;8.60;99.90;;;;;;5051898;28;20418;-70
2024/01/28 12:26:39;;;;;;;7.00;2.75;;;8.70;99.90;;;;;;5049367;28;20044;-70
2024/01/28 12:29:05;;;;;;;5.75;2.35;;;8.70;99.90;;;;;;5034308;28;20052;-70
2024/01/28 12:31:31;;;;;;;7.70;3.03;;;8.70;99.90;;;;;;5051246;28;20033;-70
2024/01/28 12:33:57;;;;;;;6.00;2.07;;;8.80;99.90;;;;;;5051867;28;20059;-71
2024/01/28 12:36:25;;;;;;;5.93;2.28;;;8.90;99.90;;;;;;5056862;28;20089;-70
2024/01/28 12:38:59;;;;;;;6.72;2.55;;;8.90;99.90;;;;;;5055498;28;20051;-70
2024/01/28 12:41:25;;;;;;;7.93;2.70;;;8.90;99.90;;;;;;5052112;28;20033;-70
2024/01/28 12:43:53;;;;;;;5.27;2.37;;;9.00;99.90;;;;;;5052967;28;20048;-70
2024/01/28 12:46:21;;;;;;;5.65;2.88;;;9.00;99.90;;;;;;5047451;28;20097;-70
2024/01/28 12:48:49;;;;;;;7.13;2.67;;;9.10;99.90;;;;;;5038822;28;20051;-70